
Distance (Route):
Temperature : 0°C
Humidity : 0%
Pressure : 0hPa| Receiver | Date | Latitude | Longitude | Direction | Speed | Altitude | Climb | Temperature | Humidity | Pressure | Voltage | Killtimer | Uptime | BKT | XDATA |
|---|---|---|---|---|---|---|---|---|---|---|---|---|---|---|---|
| SQ9PSP-11 | 2026-08-31 16:07:48 | -12.03802 | -77.05865 | 9° | 199km/h | 993m | 0.2m/s | 0°C | 0% | 0hPa | 0V | 00:00:00 | 00:00:00 | 00:00:00 | |
| SQ9EZE-15 | 2026-08-31 16:07:48 | -12.03802 | -77.05865 | 9° | 199km/h | 993m | 0.2m/s | 0°C | 0% | 0hPa | 0V | 00:00:00 | 00:00:00 | 00:00:00 | |
| SQ9PSP-11 | 2026-08-31 16:07:32 | -12.04550 | -77.05630 | 318° | 199km/h | 994m | -0.0m/s | 0°C | 0% | 0hPa | 0V | 00:00:00 | 00:00:00 | 00:00:00 | |
| SQ9EZE-15 | 2026-08-31 16:07:27 | -12.04710 | -77.05431 | 302° | 199km/h | 995m | -0.1m/s | 0°C | 0% | 0hPa | 0V | 00:00:00 | 00:00:00 | 00:00:00 | |
| SQ9PSP-11 | 2026-08-31 16:07:17 | -12.04841 | -77.04940 | 270° | 199km/h | 996m | 0.4m/s | 0°C | 0% | 0hPa | 0V | 00:00:00 | 00:00:00 | 00:00:00 | |
| SQ9PSP-11 | 2026-08-31 16:06:25 | 51.27806 | 21.95223 | 84° | 38km/h | 17445m | 3.3m/s | 0°C | 0% | 0hPa | 0V | 00:00:00 | 00:00:00 | 00:00:00 | |
| SQ9PSP-11 | 2026-08-31 16:06:04 | 51.27764 | 21.94995 | 53° | 22km/h | 17360m | 2.2m/s | 0°C | 0% | 0hPa | 0V | 00:00:00 | 00:00:00 | 00:00:00 | |
| SQ9PSP-11 | 2026-08-31 16:05:48 | 51.27690 | 21.94822 | 52° | 58km/h | 17293m | 1.8m/s | 0°C | 0% | 0hPa | 0V | 00:00:00 | 00:00:00 | 00:00:00 | |
| SQ9PSP-11 | 2026-08-31 16:05:31 | 51.27599 | 21.94660 | 28° | 35km/h | 17230m | 2.1m/s | 0°C | 0% | 0hPa | 0V | 00:00:00 | 00:00:00 | 00:00:00 | |
| SQ9PSP-11 | 2026-08-31 16:05:15 | 51.27530 | 21.94514 | 82° | 15km/h | 17174m | 3.7m/s | 0°C | 0% | 0hPa | 0V | 00:00:00 | 00:00:00 | 00:00:00 | |
| SQ9PSP-11 | 2026-08-31 16:05:00 | 51.27470 | 21.94393 | 69° | 22km/h | 17108m | 2.4m/s | 0°C | 0% | 0hPa | 0V | 00:00:00 | 00:00:00 | 00:00:00 | |
| SQ9PSP-11 | 2026-08-31 16:04:43 | 51.27409 | 21.94292 | 60° | 13km/h | 17029m | 2.9m/s | 0°C | 0% | 0hPa | 0V | 00:00:00 | 00:00:00 | 00:00:00 | |
| SQ9PSP-11 | 2026-08-31 16:04:28 | 51.27362 | 21.94188 | 114° | 29km/h | 16976m | 1.0m/s | 0°C | 0% | 0hPa | 0V | 00:00:00 | 00:00:00 | 00:00:00 | |
| SQ9PSP-11 | 2026-08-31 16:04:12 | 51.27351 | 21.94031 | 97° | 47km/h | 16917m | 3.4m/s | 0°C | 0% | 0hPa | 0V | 00:00:00 | 00:00:00 | 00:00:00 | |
| SQ9PSP-11 | 2026-08-31 16:03:56 | 51.27337 | 21.93814 | 68° | 53km/h | 16847m | 3.3m/s | 0°C | 0% | 0hPa | 0V | 00:00:00 | 00:00:00 | 00:00:00 | |
| SQ9PSP-11 | 2026-08-31 16:03:40 | 51.27304 | 21.93583 | 69° | 58km/h | 16780m | 2.9m/s | 0°C | 0% | 0hPa | 0V | 00:00:00 | 00:00:00 | 00:00:00 | |
| SQ9PSP-11 | 2026-08-31 16:03:21 | 51.27223 | 21.93303 | 58° | 58km/h | 16703m | 2.7m/s | 0°C | 0% | 0hPa | 0V | 00:00:00 | 00:00:00 | 00:00:00 | |
| SQ9PSP-11 | 2026-08-31 16:03:04 | 51.27152 | 21.93084 | 85° | 35km/h | 16639m | 0.7m/s | 0°C | 0% | 0hPa | 0V | 00:00:00 | 00:00:00 | 00:00:00 | |
| SQ9PSP-11 | 2026-08-31 16:02:47 | 51.27101 | 21.92859 | 59° | 33km/h | 16566m | 4.3m/s | 0°C | 0% | 0hPa | 0V | 00:00:00 | 00:00:00 | 00:00:00 | |
| SQ9PSP-11 | 2026-08-31 16:02:31 | 51.27051 | 21.92619 | 88° | 31km/h | 16499m | 3.3m/s | 0°C | 0% | 0hPa | 0V | 00:00:00 | 00:00:00 | 00:00:00 | |
| SQ9PSP-11 | 2026-08-31 16:02:16 | 51.26998 | 21.92423 | 80° | 22km/h | 16440m | 1.6m/s | 0°C | 0% | 0hPa | 0V | 00:00:00 | 00:00:00 | 00:00:00 | |
| SQ9PSP-11 | 2026-08-31 16:01:58 | 51.26929 | 21.92233 | 65° | 46km/h | 16368m | 2.3m/s | 0°C | 0% | 0hPa | 0V | 00:00:00 | 00:00:00 | 00:00:00 | |
| SQ9PSP-11 | 2026-08-31 16:01:42 | 51.26860 | 21.92081 | 48° | 42km/h | 16305m | 2.9m/s | 0°C | 0% | 0hPa | 0V | 00:00:00 | 00:00:00 | 00:00:00 | |
| SP9KGR-15 | 2026-08-31 15:36:50 | 51.16584 | 21.40506 | 63° | 97km/h | 10716m | 3.8m/s | 0°C | 0% | 0hPa | 0V | 00:00:00 | 00:00:00 | 00:00:00 |